createdAt,value
2023-02-11T00:00:03.595Z,-1.44
2023-02-11T00:01:37.252Z,-1.43
2023-02-11T00:03:09.737Z,-1.42
2023-02-11T00:04:41.715Z,-1.42
2023-02-11T00:06:13.909Z,-1.42
2023-02-11T00:07:45.839Z,-1.41
2023-02-11T00:09:17.810Z,-1.42
2023-02-11T00:10:53.577Z,-1.43
2023-02-11T00:12:25.899Z,-1.45
2023-02-11T00:13:59.273Z,-1.47
2023-02-11T00:15:31.215Z,-1.49
2023-02-11T00:17:03.184Z,-1.50
2023-02-11T00:18:36.420Z,-1.54
2023-02-11T00:20:08.656Z,-1.55
2023-02-11T00:21:41.644Z,-1.55
2023-02-11T00:23:14.469Z,-1.57
2023-02-11T00:24:46.446Z,-1.58
2023-02-11T00:26:20.242Z,-1.61
2023-02-11T00:27:52.376Z,-1.62
2023-02-11T00:29:24.417Z,-1.63
2023-02-11T00:30:57.249Z,-1.64
2023-02-11T00:32:29.233Z,-1.64
2023-02-11T00:34:01.236Z,-1.65
2023-02-11T00:35:33.254Z,-1.65
2023-02-11T00:37:05.763Z,-1.66
2023-02-11T00:38:38.832Z,-1.66
2023-02-11T00:40:11.601Z,-1.67
2023-02-11T00:41:44.670Z,-1.65
2023-02-11T00:43:18.029Z,-1.62
2023-02-11T00:44:50.386Z,-1.61
2023-02-11T00:46:22.689Z,-1.61
2023-02-11T00:47:54.750Z,-1.61
2023-02-11T00:49:26.752Z,-1.60
2023-02-11T00:50:58.660Z,-1.61
2023-02-11T00:52:31.209Z,-1.61
2023-02-11T00:54:03.215Z,-1.63
2023-02-11T00:55:35.649Z,-1.65
2023-02-11T00:57:07.563Z,-1.67
2023-02-11T00:58:39.572Z,-1.67
2023-02-11T01:00:12.179Z,-1.67
2023-02-11T01:01:44.256Z,-1.65
2023-02-11T01:03:16.205Z,-1.66
2023-02-11T01:04:48.231Z,-1.66
2023-02-11T01:06:20.435Z,-1.66
2023-02-11T01:07:52.448Z,-1.65
2023-02-11T01:09:24.400Z,-1.62
2023-02-11T01:10:56.456Z,-1.61
2023-02-11T01:12:28.384Z,-1.61
2023-02-11T01:14:02.555Z,-1.61
2023-02-11T01:15:34.551Z,-1.61
2023-02-11T01:17:06.574Z,-1.59
2023-02-11T01:18:38.670Z,-1.59
2023-02-11T01:20:20.667Z,-1.59
2023-02-11T01:21:52.582Z,-1.58
2023-02-11T01:23:27.317Z,-1.58
2023-02-11T01:24:59.216Z,-1.56
2023-02-11T01:26:31.246Z,-1.55
2023-02-11T01:28:03.515Z,-1.57
2023-02-11T01:29:36.137Z,-1.59
2023-02-11T01:31:08.267Z,-1.60
2023-02-11T01:32:40.608Z,-1.62
2023-02-11T01:34:14.423Z,-1.62
2023-02-11T01:35:46.504Z,-1.61
2023-02-11T01:37:18.436Z,-1.61
2023-02-11T01:38:50.552Z,-1.61
2023-02-11T01:40:25.379Z,-1.61
2023-02-11T01:41:57.400Z,-1.63
2023-02-11T01:43:31.772Z,-1.64
2023-02-11T01:45:24.161Z,-1.65
2023-02-11T01:46:56.183Z,-1.68
2023-02-11T01:48:39.193Z,-1.67
2023-02-11T01:50:11.191Z,-1.69
2023-02-11T01:51:47.678Z,-1.67
2023-02-11T01:53:40.722Z,-1.63
2023-02-11T01:55:32.007Z,-1.63
2023-02-11T01:57:22.758Z,-1.63
2023-02-11T01:58:57.368Z,-1.63
2023-02-11T02:00:33.013Z,-1.63
2023-02-11T02:02:07.131Z,-1.62
2023-02-11T02:03:42.503Z,-1.65
2023-02-11T02:05:17.901Z,-1.68
2023-02-11T02:06:52.299Z,-1.68
2023-02-11T02:08:36.512Z,-1.65
2023-02-11T02:10:11.521Z,-1.67
2023-02-11T02:11:44.609Z,-1.69
2023-02-11T02:13:17.448Z,-1.72
2023-02-11T02:14:49.426Z,-1.75
2023-02-11T02:16:22.419Z,-1.79
2023-02-11T02:18:13.114Z,-1.82
2023-02-11T02:19:45.057Z,-1.86
2023-02-11T02:21:36.112Z,-1.89
2023-02-11T02:23:26.914Z,-1.90
2023-02-11T02:25:01.073Z,-1.92
2023-02-11T02:26:34.160Z,-1.94
2023-02-11T02:28:06.104Z,-1.95
2023-02-11T02:29:56.739Z,-1.94
2023-02-11T02:31:40.452Z,-1.91
2023-02-11T02:33:22.380Z,-1.94
2023-02-11T02:35:10.177Z,-1.96
2023-02-11T02:36:56.076Z,-1.95
2023-02-11T02:38:46.921Z,-1.98
2023-02-11T02:40:25.510Z,-2.00
2023-02-11T02:41:57.663Z,-2.05
2023-02-11T02:43:30.577Z,-2.08
2023-02-11T02:45:02.570Z,-2.07
2023-02-11T02:46:35.219Z,-2.06
2023-02-11T02:48:07.296Z,-2.06
2023-02-11T02:49:39.269Z,-2.07
2023-02-11T02:51:17.756Z,-2.08
2023-02-11T02:53:09.973Z,-2.10
2023-02-11T02:54:44.857Z,-2.10
2023-02-11T02:56:29.545Z,-2.09
2023-02-11T02:58:07.719Z,-2.10
2023-02-11T02:59:51.904Z,-2.09
2023-02-11T03:01:26.471Z,-2.08
2023-02-11T03:02:58.484Z,-2.08
2023-02-11T03:04:30.432Z,-2.08
2023-02-11T03:06:16.266Z,-2.10
2023-02-11T03:07:57.419Z,-2.12
2023-02-11T03:09:36.983Z,-2.13
2023-02-11T03:11:10.474Z,-2.14
2023-02-11T03:12:43.997Z,-2.16
2023-02-11T03:14:17.330Z,-2.19
2023-02-11T03:15:51.307Z,-2.19
2023-02-11T03:17:24.032Z,-2.22
2023-02-11T03:18:59.739Z,-2.25
2023-02-11T03:20:33.100Z,-2.25
2023-02-11T03:22:07.526Z,-2.28
2023-02-11T03:23:41.566Z,-2.32
2023-02-11T03:25:13.903Z,-2.34
2023-02-11T03:26:56.602Z,-2.37
2023-02-11T03:28:28.605Z,-2.39
2023-02-11T03:30:09.993Z,-2.41
2023-02-11T03:31:51.575Z,-2.44
2023-02-11T03:33:29.387Z,-2.42
2023-02-11T03:35:01.419Z,-2.40
2023-02-11T03:36:55.571Z,-2.40
2023-02-11T03:38:32.545Z,-2.37
2023-02-11T03:40:06.487Z,-2.35
2023-02-11T03:41:39.200Z,-2.36
2023-02-11T03:43:22.776Z,-2.36
2023-02-11T03:44:58.614Z,-2.39
2023-02-11T03:46:36.644Z,-2.40
2023-02-11T03:48:14.566Z,-2.41
2023-02-11T03:49:47.609Z,-2.42
2023-02-11T03:51:20.821Z,-2.41
2023-02-11T03:52:54.417Z,-2.42
2023-02-11T03:54:30.383Z,-2.42
2023-02-11T03:56:05.185Z,-2.42
2023-02-11T03:57:37.597Z,-2.40
2023-02-11T03:59:09.517Z,-2.41
2023-02-11T04:00:42.597Z,-2.42
2023-02-11T04:02:14.550Z,-2.42
2023-02-11T04:03:46.515Z,-2.42
2023-02-11T04:05:18.720Z,-2.42
2023-02-11T04:06:50.722Z,-2.39
2023-02-11T04:08:22.671Z,-2.38
2023-02-11T04:09:54.758Z,-2.37
2023-02-11T04:11:26.805Z,-2.34
2023-02-11T04:12:59.245Z,-2.31
2023-02-11T04:14:31.162Z,-2.29
2023-02-11T04:16:03.319Z,-2.24
2023-02-11T04:17:37.101Z,-2.24
2023-02-11T04:19:09.142Z,-2.23
2023-02-11T04:20:41.119Z,-2.21
2023-02-11T04:22:13.134Z,-2.21
2023-02-11T04:23:45.050Z,-2.22
2023-02-11T04:25:17.211Z,-2.21
2023-02-11T04:26:49.150Z,-2.24
2023-02-11T04:28:21.291Z,-2.26
2023-02-11T04:29:54.223Z,-2.26
2023-02-11T04:31:26.371Z,-2.26
2023-02-11T04:32:58.746Z,-2.27
2023-02-11T04:34:30.860Z,-2.29
2023-02-11T04:36:02.773Z,-2.31
2023-02-11T04:37:35.689Z,-2.33
2023-02-11T04:39:07.750Z,-2.34
2023-02-11T04:40:40.061Z,-2.34
2023-02-11T04:42:12.279Z,-2.32
2023-02-11T04:43:44.224Z,-2.30
2023-02-11T04:45:16.170Z,-2.28
2023-02-11T04:46:48.292Z,-2.27
2023-02-11T04:48:20.356Z,-2.26
2023-02-11T04:49:52.381Z,-2.25
2023-02-11T04:51:24.501Z,-2.24
2023-02-11T04:52:56.417Z,-2.26
2023-02-11T04:54:28.346Z,-2.24
2023-02-11T04:56:00.420Z,-2.22
2023-02-11T04:57:32.404Z,-2.21
2023-02-11T04:59:04.519Z,-2.20
2023-02-11T05:00:36.542Z,-2.19
2023-02-11T05:02:08.544Z,-2.16
2023-02-11T05:03:40.904Z,-2.15
2023-02-11T05:05:12.959Z,-2.13
2023-02-11T05:06:44.913Z,-2.10
2023-02-11T05:08:16.862Z,-2.08
2023-02-11T05:09:48.812Z,-2.06
2023-02-11T05:11:22.569Z,-2.04
2023-02-11T05:12:56.002Z,-2.00
2023-02-11T05:14:28.230Z,-1.99
2023-02-11T05:16:00.192Z,-1.90
2023-02-11T05:17:32.134Z,-1.84
2023-02-11T05:19:04.409Z,-1.78
2023-02-11T05:20:38.196Z,-1.72
2023-02-11T05:22:10.196Z,-1.64
2023-02-11T05:23:42.355Z,-1.59
2023-02-11T05:25:14.261Z,-1.55
2023-02-11T05:26:46.283Z,-1.49
2023-02-11T05:28:18.240Z,-1.45
2023-02-11T05:29:50.149Z,-1.41
2023-02-11T05:31:22.112Z,-1.36
2023-02-11T05:32:54.061Z,-1.33
2023-02-11T05:34:26.052Z,-1.27
2023-02-11T05:35:59.486Z,-1.21
2023-02-11T05:37:31.474Z,-1.15
2023-02-11T05:39:03.791Z,-1.11
2023-02-11T05:40:35.728Z,-1.05
2023-02-11T05:42:07.728Z,-1.04
2023-02-11T05:43:39.846Z,-1.02
2023-02-11T05:45:11.889Z,-1.00
2023-02-11T05:46:43.934Z,-1.04
2023-02-11T05:48:16.469Z,-1.00
2023-02-11T05:49:48.758Z,-0.98
2023-02-11T05:51:20.848Z,-0.98
2023-02-11T05:52:52.866Z,-0.98
2023-02-11T05:54:25.079Z,-0.98
2023-02-11T05:55:57.534Z,-0.98
2023-02-11T05:57:29.522Z,-1.00
2023-02-11T05:59:01.519Z,-0.98
2023-02-11T06:00:33.915Z,-0.99
2023-02-11T06:02:07.979Z,-0.98
2023-02-11T06:03:40.019Z,-0.96
2023-02-11T06:05:12.050Z,-0.96
2023-02-11T06:06:43.986Z,-0.96
2023-02-11T06:08:15.924Z,-0.96
2023-02-11T06:09:47.943Z,-0.97
2023-02-11T06:11:20.354Z,-0.98
2023-02-11T06:12:52.596Z,-0.98
2023-02-11T06:14:24.703Z,-0.97
2023-02-11T06:15:57.444Z,-0.97
2023-02-11T06:17:33.766Z,-0.95
2023-02-11T06:19:06.037Z,-0.93
2023-02-11T06:20:40.866Z,-0.90
2023-02-11T06:22:12.832Z,-0.87
2023-02-11T06:23:44.885Z,-0.84
2023-02-11T06:25:17.022Z,-0.79
2023-02-11T06:26:49.006Z,-0.76
2023-02-11T06:28:21.126Z,-0.69
2023-02-11T06:29:53.087Z,-0.63
2023-02-11T06:31:25.370Z,-0.58
2023-02-11T06:32:57.409Z,-0.53
2023-02-11T06:34:29.415Z,-0.51
2023-02-11T06:36:01.721Z,-0.49
2023-02-11T06:37:34.588Z,-0.46
2023-02-11T06:39:06.998Z,-0.44
2023-02-11T06:40:39.018Z,-0.38
2023-02-11T06:42:11.023Z,-0.32
2023-02-11T06:43:43.453Z,-0.28
2023-02-11T06:45:15.377Z,-0.21
2023-02-11T06:46:47.667Z,-0.16
2023-02-11T06:48:19.738Z,-0.11
2023-02-11T06:49:52.100Z,-0.06
2023-02-11T06:51:24.048Z,-0.02
2023-02-11T06:52:56.043Z,0.00
2023-02-11T06:54:28.095Z,0.03
2023-02-11T06:56:04.521Z,0.04
2023-02-11T06:57:36.475Z,0.07
2023-02-11T06:59:08.591Z,0.13
2023-02-11T07:00:40.632Z,0.18
2023-02-11T07:02:12.680Z,0.24
2023-02-11T07:03:45.444Z,0.34
2023-02-11T07:05:17.521Z,0.43
2023-02-11T07:06:49.449Z,0.54
2023-02-11T07:08:21.360Z,0.65
2023-02-11T07:09:53.330Z,0.75
2023-02-11T07:11:27.020Z,0.88
2023-02-11T07:12:58.968Z,1.00
2023-02-11T07:14:30.997Z,1.10
2023-02-11T07:16:07.168Z,1.19
2023-02-11T07:17:39.230Z,1.33
2023-02-11T07:19:11.178Z,1.43
2023-02-11T07:20:55.557Z,1.55
2023-02-11T07:22:43.223Z,1.75
2023-02-11T07:24:15.312Z,1.91
2023-02-11T07:25:47.202Z,2.08
2023-02-11T07:27:19.451Z,2.26
2023-02-11T07:28:51.974Z,2.46
2023-02-11T07:30:23.973Z,2.66
2023-02-11T07:31:55.978Z,2.84
2023-02-11T07:33:28.066Z,3.02
2023-02-11T07:35:00.114Z,3.18
2023-02-11T07:36:32.424Z,3.35
2023-02-11T07:38:04.694Z,3.57
2023-02-11T07:39:36.641Z,3.76
2023-02-11T07:41:13.621Z,3.90
2023-02-11T07:42:45.611Z,4.03
2023-02-11T07:44:17.574Z,4.14
2023-02-11T07:45:49.862Z,4.22
2023-02-11T07:47:21.935Z,4.28
2023-02-11T07:48:54.010Z,4.33
2023-02-11T07:50:26.120Z,4.37
2023-02-11T07:51:58.199Z,4.39
2023-02-11T07:53:30.176Z,4.46
2023-02-11T07:55:04.850Z,4.58
2023-02-11T07:56:37.020Z,4.71
2023-02-11T07:58:09.006Z,4.81
2023-02-11T07:59:40.982Z,4.91
2023-02-11T08:01:14.279Z,4.96
2023-02-11T08:02:46.242Z,5.00
2023-02-11T08:04:18.308Z,5.04
2023-02-11T08:05:50.473Z,5.07
2023-02-11T08:07:22.654Z,5.10
2023-02-11T08:08:54.633Z,5.15
2023-02-11T08:10:26.694Z,5.24
2023-02-11T08:11:58.622Z,5.32
2023-02-11T08:13:30.572Z,5.37
2023-02-11T08:15:02.517Z,5.43
2023-02-11T08:16:36.057Z,5.49
2023-02-11T08:18:08.691Z,5.59
2023-02-11T08:19:40.756Z,5.65
2023-02-11T08:21:12.710Z,5.75
2023-02-11T08:22:44.668Z,5.81
2023-02-11T08:24:16.846Z,5.90
2023-02-11T08:25:48.871Z,6.00
2023-02-11T08:27:20.834Z,6.09
2023-02-11T08:28:53.798Z,6.11
2023-02-11T08:30:27.467Z,6.12
2023-02-11T08:31:59.905Z,6.17
2023-02-11T08:33:31.831Z,6.20
2023-02-11T08:35:03.960Z,6.23
2023-02-11T08:36:36.709Z,6.23
2023-02-11T08:38:09.571Z,6.25
2023-02-11T08:39:41.505Z,6.27
2023-02-11T08:41:16.957Z,6.31
2023-02-11T08:42:48.985Z,6.33
2023-02-11T08:44:21.524Z,6.30
2023-02-11T08:45:53.691Z,6.29
2023-02-11T08:47:25.836Z,6.29
2023-02-11T08:48:57.828Z,6.27
2023-02-11T08:50:30.101Z,6.20
2023-02-11T08:52:04.310Z,6.17
2023-02-11T08:53:37.235Z,6.11
2023-02-11T08:55:09.244Z,6.07
2023-02-11T08:56:41.326Z,6.00
2023-02-11T08:58:13.379Z,5.93
2023-02-11T08:59:45.418Z,5.86
2023-02-11T09:01:17.477Z,5.80
2023-02-11T09:02:49.560Z,5.73
2023-02-11T09:04:21.553Z,5.64
2023-02-11T09:05:53.920Z,5.57
2023-02-11T09:07:25.947Z,5.52
2023-02-11T09:08:58.391Z,5.44
2023-02-11T09:10:30.309Z,5.35
2023-02-11T09:12:02.337Z,5.30
2023-02-11T09:13:34.322Z,5.27
2023-02-11T09:15:06.752Z,5.25
2023-02-11T09:16:38.811Z,5.25
2023-02-11T09:18:10.924Z,5.21
2023-02-11T09:19:42.945Z,5.20
2023-02-11T09:21:15.956Z,5.24
2023-02-11T09:22:48.285Z,5.33
2023-02-11T09:24:20.354Z,5.41
2023-02-11T09:25:52.595Z,5.51
2023-02-11T09:27:24.804Z,5.67
2023-02-11T09:28:57.088Z,5.85
2023-02-11T09:30:29.151Z,6.03
2023-02-11T09:32:01.325Z,6.15
2023-02-11T09:33:33.566Z,6.22
2023-02-11T09:35:05.689Z,6.30
2023-02-11T09:36:38.902Z,6.35
2023-02-11T09:38:10.808Z,6.39
2023-02-11T09:39:42.853Z,6.37
2023-02-11T09:41:23.689Z,6.34
2023-02-11T09:43:08.945Z,6.32
2023-02-11T09:44:44.280Z,6.30
2023-02-11T09:46:17.237Z,6.29
2023-02-11T09:47:51.186Z,6.29
2023-02-11T09:49:26.525Z,6.31
2023-02-11T09:51:00.501Z,6.29
2023-02-11T09:52:53.063Z,6.30
2023-02-11T09:54:31.073Z,6.27
2023-02-11T09:56:09.857Z,6.29
2023-02-11T09:57:41.811Z,6.29
2023-02-11T09:59:15.216Z,6.23
2023-02-11T10:00:50.003Z,6.18
2023-02-11T10:02:29.596Z,6.17
2023-02-11T10:04:20.008Z,6.19
2023-02-11T10:06:07.134Z,6.19
2023-02-11T10:07:48.368Z,6.20
2023-02-11T10:09:35.663Z,6.21
2023-02-11T10:11:30.702Z,6.28
2023-02-11T10:13:17.096Z,6.32
2023-02-11T10:14:49.079Z,6.37
2023-02-11T10:16:36.250Z,6.41
2023-02-11T10:18:11.241Z,6.47
2023-02-11T10:20:02.263Z,6.50
2023-02-11T10:21:37.128Z,6.55
2023-02-11T10:23:15.248Z,6.55
2023-02-11T10:24:54.957Z,6.53
2023-02-11T10:26:29.727Z,6.50
2023-02-11T10:28:09.978Z,6.43
2023-02-11T10:29:45.578Z,6.42
2023-02-11T10:31:34.202Z,6.41
2023-02-11T10:33:12.156Z,6.47
2023-02-11T10:34:44.135Z,6.50
2023-02-11T10:36:17.875Z,6.52
2023-02-11T10:37:50.154Z,6.55
2023-02-11T10:39:23.149Z,6.57
2023-02-11T10:40:55.348Z,6.62
2023-02-11T10:42:27.485Z,6.67
2023-02-11T10:44:02.373Z,6.66
2023-02-11T10:45:39.338Z,6.70
2023-02-11T10:47:24.045Z,6.72
2023-02-11T10:48:56.024Z,6.76
2023-02-11T10:50:34.891Z,6.79
2023-02-11T10:52:15.213Z,6.78
2023-02-11T10:53:48.333Z,6.77
2023-02-11T10:55:21.921Z,6.76
2023-02-11T10:56:59.139Z,6.86
2023-02-11T10:58:32.534Z,6.98
2023-02-11T11:00:34.225Z,7.14
2023-02-11T11:02:19.230Z,7.37
2023-02-11T11:03:52.098Z,7.52
2023-02-11T11:05:29.285Z,7.59
2023-02-11T11:07:19.672Z,7.60
2023-02-11T11:08:51.770Z,7.58
2023-02-11T11:10:29.316Z,7.57
2023-02-11T11:12:01.318Z,7.58
2023-02-11T11:13:34.595Z,7.52
2023-02-11T11:15:19.874Z,7.54
2023-02-11T11:16:55.821Z,7.62
2023-02-11T11:18:27.812Z,7.71
2023-02-11T11:20:18.424Z,7.83
2023-02-11T11:21:51.276Z,7.95
2023-02-11T11:23:24.800Z,8.08
2023-02-11T11:24:57.545Z,8.11
2023-02-11T11:26:49.857Z,8.19
2023-02-11T11:28:23.946Z,8.28
2023-02-11T11:29:56.495Z,8.35
2023-02-11T11:31:28.623Z,8.43
2023-02-11T11:33:01.008Z,8.48
2023-02-11T11:34:42.043Z,8.52
2023-02-11T11:36:18.075Z,8.62
2023-02-11T11:37:55.473Z,8.71
2023-02-11T11:39:31.466Z,8.80
2023-02-11T11:41:20.737Z,8.85
2023-02-11T11:43:06.854Z,8.91
2023-02-11T11:44:39.933Z,9.01
2023-02-11T11:46:12.366Z,9.09
2023-02-11T11:47:48.628Z,9.13
2023-02-11T11:49:43.649Z,9.19
2023-02-11T11:51:16.159Z,9.15
2023-02-11T11:52:54.062Z,9.11
2023-02-11T11:54:27.944Z,9.12
2023-02-11T11:56:07.363Z,9.17
2023-02-11T11:57:39.556Z,9.20
2023-02-11T11:59:17.165Z,9.23
2023-02-11T12:00:54.963Z,9.16
2023-02-11T12:02:26.906Z,9.06
2023-02-11T12:04:04.696Z,8.96
2023-02-11T12:05:36.637Z,8.90
2023-02-11T12:07:25.879Z,8.87
2023-02-11T12:09:18.270Z,8.82
2023-02-11T12:10:53.236Z,8.80
2023-02-11T12:12:26.763Z,8.83
2023-02-11T12:14:04.304Z,8.89
2023-02-11T12:15:41.920Z,8.91
2023-02-11T12:17:20.045Z,8.97
2023-02-11T12:18:51.956Z,9.05
2023-02-11T12:20:35.333Z,9.11
2023-02-11T12:22:16.153Z,9.24
2023-02-11T12:24:00.403Z,9.40
2023-02-11T12:25:41.417Z,9.53
2023-02-11T12:27:18.607Z,9.64
2023-02-11T12:28:59.656Z,9.72
2023-02-11T12:30:34.752Z,9.89
2023-02-11T12:32:09.765Z,9.98
2023-02-11T12:33:57.027Z,10.06
2023-02-11T12:35:28.986Z,10.17
2023-02-11T12:37:08.023Z,10.16
2023-02-11T12:38:49.463Z,10.18
2023-02-11T12:40:21.992Z,10.17
2023-02-11T12:42:15.506Z,10.17
2023-02-11T12:43:47.532Z,10.22
2023-02-11T12:45:28.404Z,10.23
2023-02-11T12:47:00.336Z,10.23
2023-02-11T12:48:35.897Z,10.27
2023-02-11T12:50:20.308Z,10.30
2023-02-11T12:51:59.259Z,10.22
2023-02-11T12:53:49.963Z,10.18
2023-02-11T12:55:29.682Z,10.09
2023-02-11T12:57:27.996Z,10.03
2023-02-11T12:59:00.858Z,9.93
2023-02-11T13:00:42.647Z,9.88
2023-02-11T13:02:19.551Z,9.86
2023-02-11T13:03:56.014Z,9.86
2023-02-11T13:05:33.294Z,9.93
2023-02-11T13:07:16.258Z,10.00
2023-02-11T13:08:53.701Z,10.07
2023-02-11T13:10:27.716Z,10.14
2023-02-11T13:12:20.798Z,10.17
2023-02-11T13:13:56.119Z,10.18
2023-02-11T13:15:28.391Z,10.17
2023-02-11T13:17:00.613Z,10.18
2023-02-11T13:18:37.930Z,10.14
2023-02-11T13:20:20.702Z,10.13
2023-02-11T13:22:11.304Z,10.15
2023-02-11T13:23:49.483Z,10.17
2023-02-11T13:25:28.167Z,10.21
2023-02-11T13:27:18.761Z,10.24
2023-02-11T13:28:54.090Z,10.15
2023-02-11T13:30:29.088Z,10.04
2023-02-11T13:32:11.724Z,10.01
2023-02-11T13:33:44.460Z,9.88
2023-02-11T13:35:26.908Z,9.76
2023-02-11T13:36:58.903Z,9.69
2023-02-11T13:38:31.557Z,9.64
2023-02-11T13:40:19.545Z,9.59
2023-02-11T13:42:01.994Z,9.57
2023-02-11T13:43:35.321Z,9.51
2023-02-11T13:45:17.581Z,9.41
2023-02-11T13:47:04.801Z,9.37
2023-02-11T13:48:38.169Z,9.31
2023-02-11T13:50:22.638Z,9.27
2023-02-11T13:51:55.670Z,9.25
2023-02-11T13:53:27.956Z,9.24
2023-02-11T13:55:12.154Z,9.23
2023-02-11T13:56:46.349Z,9.28
2023-02-11T13:58:20.174Z,9.35
2023-02-11T13:59:56.935Z,9.43
2023-02-11T14:02:19.556Z,9.51
2023-02-11T14:04:38.672Z,9.57
2023-02-11T14:06:29.180Z,9.62
2023-02-11T14:08:29.062Z,9.65
2023-02-11T14:10:01.070Z,9.65
2023-02-11T14:11:33.355Z,9.61
2023-02-11T14:13:07.256Z,9.52
2023-02-11T14:14:58.816Z,9.39
2023-02-11T14:16:38.378Z,9.31
2023-02-11T14:18:40.389Z,9.21
2023-02-11T14:20:38.571Z,9.10
2023-02-11T14:22:11.912Z,9.00
2023-02-11T14:23:44.359Z,8.97
2023-02-11T14:25:19.994Z,8.93
2023-02-11T14:26:55.678Z,8.92
2023-02-11T14:28:32.949Z,8.87
2023-02-11T14:30:08.141Z,8.84
2023-02-11T14:31:55.043Z,8.82
2023-02-11T14:33:27.058Z,8.83
2023-02-11T14:34:59.176Z,8.79
2023-02-11T14:36:43.763Z,8.78
2023-02-11T14:38:35.189Z,8.76
2023-02-11T14:40:30.274Z,8.76
2023-02-11T14:42:02.766Z,8.81
2023-02-11T14:43:45.400Z,8.81
2023-02-11T14:45:20.090Z,8.81
2023-02-11T14:46:53.509Z,8.80
2023-02-11T14:48:35.186Z,8.80
2023-02-11T14:50:09.864Z,8.76
2023-02-11T14:51:42.082Z,8.75
2023-02-11T14:53:16.178Z,8.74
2023-02-11T14:54:49.526Z,8.73
2023-02-11T14:56:24.647Z,8.73
2023-02-11T14:58:13.999Z,8.72
2023-02-11T14:59:59.333Z,8.70
2023-02-11T15:01:34.034Z,8.68
2023-02-11T15:03:06.061Z,8.67
2023-02-11T15:04:40.453Z,8.62
2023-02-11T15:06:14.953Z,8.58
2023-02-11T15:07:48.548Z,8.50
2023-02-11T15:09:38.520Z,8.45
2023-02-11T15:11:12.215Z,8.38
2023-02-11T15:12:48.791Z,8.34
2023-02-11T15:14:24.118Z,8.28
2023-02-11T15:15:58.704Z,8.23
2023-02-11T15:17:31.946Z,8.22
2023-02-11T15:19:05.168Z,8.13
2023-02-11T15:20:37.261Z,8.05
2023-02-11T15:22:18.522Z,7.99
2023-02-11T15:23:57.916Z,7.94
2023-02-11T15:25:32.317Z,7.90
2023-02-11T15:27:08.500Z,7.85
2023-02-11T15:28:48.989Z,7.79
2023-02-11T15:30:23.796Z,7.71
2023-02-11T15:32:08.588Z,7.64
2023-02-11T15:33:40.795Z,7.56
2023-02-11T15:35:13.975Z,7.50
2023-02-11T15:36:46.156Z,7.44
2023-02-11T15:38:18.504Z,7.39
2023-02-11T15:39:51.265Z,7.34
2023-02-11T15:41:37.368Z,7.30
2023-02-11T15:43:10.139Z,7.26
2023-02-11T15:44:42.160Z,7.23
2023-02-11T15:46:18.758Z,7.20
2023-02-11T15:47:52.277Z,7.18
2023-02-11T15:49:24.993Z,7.15
2023-02-11T15:51:01.146Z,7.11
2023-02-11T15:52:33.587Z,7.07
2023-02-11T15:54:07.879Z,7.07
2023-02-11T15:55:41.125Z,7.03
2023-02-11T15:57:13.756Z,6.97
2023-02-11T15:58:47.606Z,6.94
2023-02-11T16:00:21.566Z,6.90
2023-02-11T16:01:54.508Z,6.85
2023-02-11T16:03:28.872Z,6.79
2023-02-11T16:05:03.850Z,6.77
2023-02-11T16:06:38.770Z,6.71
2023-02-11T16:08:21.351Z,6.65
2023-02-11T16:09:57.521Z,6.61
2023-02-11T16:11:38.414Z,6.56
2023-02-11T16:13:10.310Z,6.52
2023-02-11T16:14:42.399Z,6.48
2023-02-11T16:16:33.538Z,6.44
2023-02-11T16:18:14.497Z,6.41
2023-02-11T16:19:47.551Z,6.38
2023-02-11T16:21:21.515Z,6.35
2023-02-11T16:22:53.713Z,6.32
2023-02-11T16:24:30.677Z,6.27
2023-02-11T16:26:07.059Z,6.21
2023-02-11T16:27:40.886Z,6.15
2023-02-11T16:29:22.778Z,6.08
2023-02-11T16:30:55.689Z,5.97
2023-02-11T16:32:28.737Z,5.88
2023-02-11T16:34:00.746Z,5.80
2023-02-11T16:35:32.800Z,5.73
2023-02-11T16:37:05.578Z,5.67
2023-02-11T16:38:37.495Z,5.63
2023-02-11T16:40:09.909Z,5.61
2023-02-11T16:41:41.875Z,5.60
2023-02-11T16:43:19.923Z,5.60
2023-02-11T16:44:51.974Z,5.59
2023-02-11T16:46:23.991Z,5.58
2023-02-11T16:47:56.046Z,5.55
2023-02-11T16:49:30.021Z,5.55
2023-02-11T16:51:02.125Z,5.53
2023-02-11T16:52:36.000Z,5.47
2023-02-11T16:54:11.608Z,5.43
2023-02-11T16:55:43.634Z,5.40
2023-02-11T16:57:17.504Z,5.42
2023-02-11T16:58:49.485Z,5.36
2023-02-11T17:00:21.766Z,5.30
2023-02-11T17:01:55.047Z,5.26
2023-02-11T17:03:29.963Z,5.18
2023-02-11T17:05:04.032Z,5.11
2023-02-11T17:06:36.060Z,5.05
2023-02-11T17:08:09.487Z,5.00
2023-02-11T17:09:43.403Z,4.96
2023-02-11T17:11:16.938Z,4.91
2023-02-11T17:12:49.674Z,4.89
2023-02-11T17:14:21.654Z,4.85
2023-02-11T17:15:54.081Z,4.84
2023-02-11T17:17:26.457Z,4.85
2023-02-11T17:18:58.505Z,4.84
2023-02-11T17:20:30.644Z,4.87
2023-02-11T17:22:03.343Z,4.84
2023-02-11T17:23:35.506Z,4.84
2023-02-11T17:25:07.913Z,4.85
2023-02-11T17:26:40.005Z,4.85
2023-02-11T17:28:12.269Z,4.87
2023-02-11T17:29:44.425Z,4.88
2023-02-11T17:31:16.694Z,4.90
2023-02-11T17:32:49.288Z,4.89
2023-02-11T17:34:21.864Z,4.84
2023-02-11T17:35:54.342Z,4.79
2023-02-11T17:37:26.381Z,4.75
2023-02-11T17:38:58.954Z,4.70
2023-02-11T17:40:30.925Z,4.67
2023-02-11T17:42:02.990Z,4.63
2023-02-11T17:43:35.082Z,4.59
2023-02-11T17:45:07.523Z,4.54
2023-02-11T17:46:39.680Z,4.49
2023-02-11T17:48:11.712Z,4.48
2023-02-11T17:49:43.655Z,4.46
2023-02-11T17:51:21.970Z,4.43
2023-02-11T17:52:53.883Z,4.43
2023-02-11T17:54:26.125Z,4.42
2023-02-11T17:55:58.210Z,4.44
2023-02-11T17:57:30.341Z,4.44
2023-02-11T17:59:03.006Z,4.46
2023-02-11T18:00:35.088Z,4.49
2023-02-11T18:02:07.627Z,4.50
2023-02-11T18:03:39.650Z,4.56
2023-02-11T18:05:11.778Z,4.61
2023-02-11T18:06:44.254Z,4.64
2023-02-11T18:08:16.265Z,4.66
2023-02-11T18:09:48.318Z,4.67
2023-02-11T18:11:21.557Z,4.68
2023-02-11T18:12:53.499Z,4.70
2023-02-11T18:14:25.539Z,4.70
2023-02-11T18:16:02.209Z,4.75
2023-02-11T18:17:34.160Z,4.84
2023-02-11T18:19:07.649Z,4.87
2023-02-11T18:20:42.828Z,4.91
2023-02-11T18:22:15.131Z,4.95
2023-02-11T18:23:47.168Z,4.95
2023-02-11T18:25:19.454Z,4.99
2023-02-11T18:26:51.390Z,5.02
2023-02-11T18:28:23.491Z,5.09
2023-02-11T18:29:55.450Z,5.08
2023-02-11T18:31:27.653Z,5.11
2023-02-11T18:32:59.665Z,5.13
2023-02-11T18:34:33.059Z,5.13
2023-02-11T18:36:06.377Z,5.14
2023-02-11T18:37:38.491Z,5.14
2023-02-11T18:39:10.514Z,5.14
2023-02-11T18:40:42.503Z,5.13
2023-02-11T18:42:14.561Z,5.17
2023-02-11T18:43:46.651Z,5.16
2023-02-11T18:45:18.607Z,5.16
2023-02-11T18:46:51.317Z,5.17
2023-02-11T18:48:23.822Z,5.14
2023-02-11T18:49:55.908Z,5.16
2023-02-11T18:51:28.085Z,5.16
2023-02-11T18:53:00.127Z,5.16
2023-02-11T18:54:32.358Z,5.13
2023-02-11T18:56:24.631Z,5.14
2023-02-11T18:57:56.688Z,5.13
2023-02-11T18:59:28.792Z,5.16
2023-02-11T19:01:00.885Z,5.16
2023-02-11T19:02:32.995Z,5.13
2023-02-11T19:04:05.378Z,5.16
2023-02-11T19:05:55.492Z,5.18
2023-02-11T19:07:27.487Z,5.17
2023-02-11T19:09:01.043Z,5.17
2023-02-11T19:10:33.081Z,5.20
2023-02-11T19:12:07.155Z,5.19
2023-02-11T19:13:39.171Z,5.22
2023-02-11T19:15:11.178Z,5.22
2023-02-11T19:16:44.087Z,5.21
2023-02-11T19:18:16.439Z,5.23
2023-02-11T19:19:48.434Z,5.21
2023-02-11T19:21:20.978Z,5.23
2023-02-11T19:22:52.882Z,5.24
2023-02-11T19:24:25.795Z,5.24
2023-02-11T19:25:57.764Z,5.24
2023-02-11T19:27:29.828Z,5.25
2023-02-11T19:29:02.110Z,5.26
2023-02-11T19:30:35.807Z,5.26
2023-02-11T19:32:07.938Z,5.29
2023-02-11T19:33:40.642Z,5.28
2023-02-11T19:35:12.604Z,5.28
2023-02-11T19:36:44.660Z,5.26
2023-02-11T19:38:17.904Z,5.28
2023-02-11T19:39:49.868Z,5.26
2023-02-11T19:41:24.671Z,5.26
2023-02-11T19:42:56.637Z,5.27
2023-02-11T19:44:28.586Z,5.26
2023-02-11T19:46:02.654Z,5.26
2023-02-11T19:47:34.755Z,5.27
2023-02-11T19:49:07.177Z,5.26
2023-02-11T19:50:39.260Z,5.29
2023-02-11T19:52:11.396Z,5.28
2023-02-11T19:53:43.892Z,5.27
2023-02-11T19:55:15.826Z,5.25
2023-02-11T19:56:48.862Z,5.26
2023-02-11T19:58:21.161Z,5.28
2023-02-11T19:59:55.049Z,5.30
2023-02-11T20:01:27.217Z,5.30
2023-02-11T20:02:59.288Z,5.32
2023-02-11T20:04:32.280Z,5.31
2023-02-11T20:06:05.607Z,5.31
2023-02-11T20:07:37.617Z,5.32
2023-02-11T20:09:12.393Z,5.34
2023-02-11T20:10:44.523Z,5.35
2023-02-11T20:12:16.471Z,5.36
2023-02-11T20:13:49.342Z,5.38
2023-02-11T20:15:21.338Z,5.39
2023-02-11T20:16:53.383Z,5.45
2023-02-11T20:18:25.302Z,5.45
2023-02-11T20:19:57.294Z,5.47
2023-02-11T20:21:30.241Z,5.45
2023-02-11T20:23:02.273Z,5.48
2023-02-11T20:24:34.263Z,5.47
2023-02-11T20:26:07.447Z,5.47
2023-02-11T20:27:39.440Z,5.45
2023-02-11T20:29:11.464Z,5.45
2023-02-11T20:30:43.418Z,5.44
2023-02-11T20:32:15.579Z,5.44
2023-02-11T20:33:47.747Z,5.45
2023-02-11T20:35:19.809Z,5.47
2023-02-11T20:36:52.314Z,5.47
2023-02-11T20:38:24.517Z,5.47
2023-02-11T20:39:56.629Z,5.49
2023-02-11T20:41:30.851Z,5.49
2023-02-11T20:43:02.819Z,5.47
2023-02-11T20:44:36.773Z,5.49
2023-02-11T20:46:08.780Z,5.49
2023-02-11T20:47:42.073Z,5.50
2023-02-11T20:49:18.982Z,5.50